Etusivu
METAR-TAF:

METAR-TAF

Lentoasemat :

Malpensan kansainvälinen lentoasema

Milano, Italia

Leveyspiiri: 45-37N, Pituuspiiri: 008-44E, korkeus merenpinnasta: 234 m

Tämänhetkinen sää

Tämä raportti tehtiin 44 minuuttia sitten, kello 13.50 UTC
Tuuli 8 kn etelästä/lounaasta
Lämpötila 25°C
Kosteus 50%
Ilmanpaine 1006 hPa
Näkyvyys 10 km tai enemmän
ei pilviä alle 1500 m:ssä eikä cumulonimbus-pilviä

METAR: LIMC 061350Z 21008KT CAVOK 25/14 Q1006 NOSIG

Aika: 16:34 (14:34 UTC)

Sääennuste

Tämä raportti tehtiin 3 tuntia ja 34 minuuttia sitten, kello 11.00 UTC
Ennuste voimassa 06. päivästä klo 12 UTC - 07. päivään klo 18 UTC
Tuuli 6 kn eri suunnista
Näkyvyys 10 km tai enemmän
Hajonneita pilviä 3500 ft:n korkeudessa
Ajoittain
06. päivästä klo 15 UTC - 06. päivään klo 18 UTC
vesikuuroja
Ajoittain
07. päivästä klo 00 UTC - 07. päivään klo 18 UTC
Näkyvyys: 3000 m
ukkosmyrsky, sadetta

TAF: LIMC 061100Z 0612/0718 VRB06KT 9999 BKN035 TEMPO 0615/0618 SHRA TEMPO 0700/0718 3000 TSRA

Säähavainnot ja -ennusteet yli 4000 lentoasemalta (METAR- ja TAF-raportit).

Käytössä olevat sääasemat on merkitty karttaan keltaisilla ja punaisilla pisteillä.

Aseta hiiri pisteen päälle nähdäksesi sääaseman nimen.

Klikkaa sitten nähdäksesi säähavainnot ja -ennusteet.

Kartan vaihtaminen: klikkaa mustalla rastilla varustettuja vihreitä pisteitä, niin voit zoomata sisään; viivalla varustettua vihreää pistettä, niin voit zoomata ulos tai vihreitä nuolia, niin pääset viereisille kartoille.


METAR-TAF: